Ana Sayfa
METAR-TAF:

METAR-TAF

Havaalanları :

Gazipaşa Havalimanı

Gazipaşa, Türkiye

Enlem: 36-17-56N, Boylam: 32-18-00E, yükseklik: 15 m

Güncel hava durumu gözlemi

Rapor saat 17:50 UTC de 1 saat ve 10 dakika önce yapıldı.
Rüzgar doğu/güneydoğudan 3 kt
Sıcaklık 19°C
Nem 88%
Basınç 1014 hPa
Görüş mesafesi 10 km veya daha fazla
1500 m altında bulut yok ve kümülonimbus yok

METAR: LTFG 161750Z 12003KT CAVOK 19/17 Q1014

Saat: 22:00 (19:00 UTC)

Tahmin

Rapor saat 16:40 UTC de 2 saat ve 20 dakika önce yapıldı.
Ayın 16'si saat 18 UTC'den ayın 17'si saat 03 UTC'ye kadar geçerli Tahmin
Rüzgar doğu/güneydoğudan 5 kt
Görüş mesafesi 10 km veya daha fazla
1500 m altında bulut yok ve kümülonimbus yok

TAF: LTFG 161640Z 1618/1703 11005KT CAVOK

4.000'den fazla havaalanı için hava durumu gözlemleri ve tahminleri (METAR ve TAF raporları).

Kullanılabilir istasyonlar harita üzerinde sarı ve kırmızı noktalarla gösterilir.

İstasyonun adını görmek için fareyi noktanın üzerinde gezdirin.

Sonrasında hava gözlem ve tahminlerini görmek için tıklayın.

Haritayı değiştirmek için: yaklaştırmak için siyah artı işaretli yeşil düğmeye ve uzaklaştırmak için de eksi işaretli düğmeye hızla tıklayın; bitişik haritalar için yeşil okları kullanın.


METAR-TAF: